createdAt,value
2018-10-09T00:00:55.590Z,56.40
2018-10-09T00:01:55.424Z,57.80
2018-10-09T00:02:55.329Z,56.10
2018-10-09T00:03:55.233Z,57.20
2018-10-09T00:04:55.158Z,55.60
2018-10-09T00:05:55.043Z,56.90
2018-10-09T00:06:54.950Z,57.40
2018-10-09T00:07:54.853Z,57.70
2018-10-09T00:08:54.758Z,54.30
2018-10-09T00:09:54.680Z,59.40
2018-10-09T00:10:54.570Z,58.70
2018-10-09T00:11:54.470Z,59.00
2018-10-09T00:12:54.376Z,60.10
2018-10-09T00:13:54.283Z,58.70
2018-10-09T00:14:54.202Z,62.00
2018-10-09T00:15:54.092Z,61.20
2018-10-09T00:16:53.996Z,62.90
2018-10-09T00:17:53.903Z,61.70
2018-10-09T00:18:53.809Z,60.40
2018-10-09T00:19:53.725Z,60.60
2018-10-09T00:20:53.616Z,60.50
2018-10-09T00:21:53.518Z,61.10
2018-10-09T00:22:53.423Z,60.40
2018-10-09T00:23:53.327Z,59.90
2018-10-09T00:24:53.363Z,60.10
2018-10-09T00:25:53.193Z,60.20
2018-10-09T00:26:53.044Z,60.70
2018-10-09T00:27:52.950Z,60.50
2018-10-09T00:28:52.851Z,62.20
2018-10-09T00:29:52.758Z,62.50
2018-10-09T00:30:52.683Z,64.20
2018-10-09T00:31:52.679Z,62.70
2018-10-09T00:32:52.474Z,60.50
2018-10-09T00:33:52.376Z,62.80
2018-10-09T00:34:52.301Z,66.40
2018-10-09T00:35:52.184Z,59.60
2018-10-09T00:36:52.091Z,62.10
2018-10-09T00:37:51.993Z,65.00
2018-10-09T00:38:52.006Z,62.70
2018-10-09T00:39:51.809Z,62.80
2018-10-09T00:40:51.724Z,65.20
2018-10-09T00:41:51.613Z,66.50
2018-10-09T00:42:51.524Z,68.00
2018-10-09T00:43:51.422Z,59.10
2018-10-09T00:44:51.329Z,65.40
2018-10-09T00:45:51.356Z,66.00
2018-10-09T00:46:51.137Z,70.00
2018-10-09T00:47:51.041Z,68.80
2018-10-09T00:48:50.949Z,70.20
2018-10-09T00:49:50.852Z,72.90
2018-10-09T00:50:50.771Z,74.60
2018-10-09T00:51:50.661Z,69.80
2018-10-09T00:52:50.670Z,71.10
2018-10-09T00:53:50.468Z,68.30
2018-10-09T00:54:50.374Z,73.30
2018-10-09T00:55:50.300Z,75.60
2018-10-09T00:56:50.189Z,65.70
2018-10-09T00:57:50.086Z,61.10
2018-10-09T00:58:49.993Z,67.00
2018-10-09T00:59:50.002Z,72.70
2018-10-09T01:00:49.819Z,78.70
2018-10-09T01:01:49.707Z,83.20
2018-10-09T01:02:49.613Z,78.50
2018-10-09T01:03:49.515Z,78.60
2018-10-09T01:04:49.419Z,72.10
2018-10-09T01:05:49.343Z,70.50
2018-10-09T01:06:49.337Z,72.20
2018-10-09T01:07:49.133Z,78.50
2018-10-09T01:08:49.083Z,80.40
2018-10-09T01:09:48.941Z,79.60
2018-10-09T01:10:48.893Z,71.80
2018-10-09T01:11:48.753Z,78.10
2018-10-09T01:12:48.658Z,75.40
2018-10-09T01:13:48.668Z,85.00
2018-10-09T01:14:48.465Z,79.90
2018-10-09T01:15:48.387Z,85.90
2018-10-09T01:16:48.276Z,73.90
2018-10-09T01:17:48.178Z,92.30
2018-10-09T01:18:48.082Z,105.10
2018-10-09T01:19:47.989Z,93.20
2018-10-09T01:20:47.991Z,95.30
2018-10-09T01:21:47.796Z,93.00
2018-10-09T01:22:47.699Z,90.50
2018-10-09T01:23:47.603Z,99.90
2018-10-09T01:24:47.509Z,104.50
2018-10-09T01:25:47.427Z,84.40
2018-10-09T01:26:47.322Z,89.80
2018-10-09T01:27:47.327Z,80.10
2018-10-09T01:28:47.123Z,70.90
2018-10-09T01:29:47.028Z,89.60
2018-10-09T01:30:46.950Z,106.10
2018-10-09T01:31:46.840Z,78.60
2018-10-09T01:32:46.742Z,81.00
2018-10-09T01:33:46.645Z,99.10
2018-10-09T01:34:46.549Z,104.20
2018-10-09T01:35:46.469Z,104.60
2018-10-09T01:36:46.359Z,101.10
2018-10-09T01:37:46.261Z,93.20
2018-10-09T01:38:46.168Z,89.20
2018-10-09T01:39:46.071Z,77.50
2018-10-09T01:40:46.001Z,114.70
2018-10-09T01:41:45.877Z,139.80
2018-10-09T01:42:45.783Z,252.40
2018-10-09T01:43:45.686Z,413.30
2018-10-09T01:44:45.591Z,158.90
2018-10-09T01:45:45.514Z,137.60
2018-10-09T01:46:45.398Z,104.40
2018-10-09T01:47:45.304Z,123.20
2018-10-09T01:48:45.206Z,96.70
2018-10-09T01:49:45.110Z,81.70
2018-10-09T01:50:45.033Z,81.00
2018-10-09T01:51:44.919Z,94.00
2018-10-09T01:52:44.822Z,84.00
2018-10-09T01:53:44.730Z,72.50
2018-10-09T01:54:44.631Z,70.20
2018-10-09T01:55:44.554Z,75.60
2018-10-09T01:56:44.439Z,95.30
2018-10-09T01:57:44.346Z,133.90
2018-10-09T01:58:44.252Z,97.80
2018-10-09T01:59:44.152Z,76.80
2018-10-09T02:00:44.073Z,90.90
2018-10-09T02:01:43.964Z,74.10
2018-10-09T02:02:43.862Z,72.80
2018-10-09T02:03:43.767Z,81.30
2018-10-09T02:04:43.670Z,79.50
2018-10-09T02:05:43.591Z,74.10
2018-10-09T02:06:43.478Z,81.50
2018-10-09T02:07:43.380Z,82.50
2018-10-09T02:08:43.284Z,84.40
2018-10-09T02:09:43.187Z,87.40
2018-10-09T02:10:43.109Z,75.70
2018-10-09T02:11:42.995Z,87.50
2018-10-09T02:12:42.899Z,80.00
2018-10-09T02:13:42.804Z,80.90
2018-10-09T02:14:42.705Z,123.90
2018-10-09T02:15:42.628Z,91.50
2018-10-09T02:16:42.525Z,112.70
2018-10-09T02:17:42.416Z,130.10
2018-10-09T02:18:42.320Z,128.60
2018-10-09T02:19:42.224Z,190.40
2018-10-09T02:20:42.130Z,168.30
2018-10-09T02:21:42.050Z,118.20
2018-10-09T02:22:41.934Z,104.80
2018-10-09T02:23:41.838Z,94.10
2018-10-09T02:24:41.743Z,98.50
2018-10-09T02:25:41.647Z,107.90
2018-10-09T02:26:41.565Z,108.00
2018-10-09T02:27:41.452Z,108.50
2018-10-09T02:28:41.355Z,93.70
2018-10-09T02:29:41.260Z,93.10
2018-10-09T02:30:41.165Z,92.70
2018-10-09T02:31:41.083Z,101.70
2018-10-09T02:32:40.973Z,117.00
2018-10-09T02:33:40.968Z,117.10
2018-10-09T02:34:40.776Z,120.40
2018-10-09T02:35:40.685Z,124.90
2018-10-09T02:36:40.600Z,102.30
2018-10-09T02:37:40.486Z,99.30
2018-10-09T02:38:40.391Z,101.50
2018-10-09T02:39:40.296Z,96.60
2018-10-09T02:40:40.199Z,99.40
2018-10-09T02:41:40.118Z,108.30
2018-10-09T02:42:40.011Z,100.50
2018-10-09T02:43:39.908Z,94.60
2018-10-09T02:44:39.820Z,91.30
2018-10-09T02:45:39.716Z,99.40
2018-10-09T02:46:39.635Z,111.10
2018-10-09T02:47:39.521Z,114.90
2018-10-09T02:48:39.426Z,118.90
2018-10-09T02:49:39.337Z,110.20
2018-10-09T02:50:39.234Z,105.80
2018-10-09T02:51:39.152Z,104.30
2018-10-09T02:52:39.042Z,94.10
2018-10-09T02:53:38.945Z,104.30
2018-10-09T02:54:38.846Z,113.60
2018-10-09T02:55:38.755Z,115.90
2018-10-09T02:56:38.669Z,120.90
2018-10-09T02:57:38.558Z,116.60
2018-10-09T02:58:38.459Z,104.80
2018-10-09T02:59:38.372Z,107.60
2018-10-09T03:00:38.265Z,127.80
2018-10-09T03:01:38.188Z,158.70
2018-10-09T03:02:38.078Z,148.00
2018-10-09T03:03:37.980Z,150.80
2018-10-09T03:04:37.882Z,117.40
2018-10-09T03:05:37.783Z,118.50
2018-10-09T03:06:37.702Z,138.80
2018-10-09T03:07:37.592Z,142.50
2018-10-09T03:08:37.560Z,136.50
2018-10-09T03:09:37.395Z,132.90
2018-10-09T03:10:37.300Z,136.10
2018-10-09T03:11:37.324Z,156.60
2018-10-09T03:12:37.108Z,472.90
2018-10-09T03:13:37.012Z,158.10
2018-10-09T03:14:36.914Z,147.80
2018-10-09T03:15:36.817Z,176.30
2018-10-09T03:16:36.738Z,172.40
2018-10-09T03:17:36.623Z,340.90
2018-10-09T03:18:36.654Z,133.60
2018-10-09T03:19:36.431Z,534.30
2018-10-09T03:20:36.363Z,1366.40
2018-10-09T03:21:36.256Z,1501.60
2018-10-09T03:22:36.143Z,1353.90
2018-10-09T03:23:36.049Z,1472.80
2018-10-09T03:24:35.952Z,1070.10
2018-10-09T03:25:35.961Z,1030.70
2018-10-09T03:26:35.772Z,707.70
2018-10-09T03:27:35.659Z,553.00
2018-10-09T03:28:35.586Z,310.50
2018-10-09T03:29:35.468Z,224.40
2018-10-09T03:30:35.372Z,185.70
2018-10-09T03:31:35.291Z,284.50
2018-10-09T03:32:35.177Z,446.30
2018-10-09T03:33:35.081Z,828.10
2018-10-09T03:34:34.982Z,437.50
2018-10-09T03:35:34.888Z,823.20
2018-10-09T03:36:34.811Z,522.70
2018-10-09T03:37:34.694Z,435.20
2018-10-09T03:38:34.598Z,182.60
2018-10-09T03:39:34.503Z,283.60
2018-10-09T03:40:34.404Z,499.90
2018-10-09T03:41:34.324Z,672.40
2018-10-09T03:42:34.211Z,845.30
2018-10-09T03:43:34.115Z,320.60
2018-10-09T03:44:34.017Z,378.00
2018-10-09T03:45:33.920Z,416.30
2018-10-09T03:46:33.840Z,476.00
2018-10-09T03:47:33.732Z,705.30
2018-10-09T03:48:33.654Z,610.30
2018-10-09T03:49:33.535Z,335.80
2018-10-09T03:50:33.438Z,213.20
2018-10-09T03:51:33.358Z,425.60
2018-10-09T03:52:33.245Z,999.30
2018-10-09T03:53:33.149Z,802.50
2018-10-09T03:54:33.054Z,410.30
2018-10-09T03:55:32.959Z,792.60
2018-10-09T03:56:32.879Z,174.40
2018-10-09T03:57:32.764Z,146.80
2018-10-09T03:58:32.668Z,170.50
2018-10-09T03:59:32.567Z,131.10
2018-10-09T04:00:32.474Z,159.30
2018-10-09T04:01:32.394Z,131.60
2018-10-09T04:02:32.281Z,129.10
2018-10-09T04:03:32.183Z,138.70
2018-10-09T04:04:32.085Z,114.50
2018-10-09T04:05:31.989Z,122.40
2018-10-09T04:06:31.903Z,131.60
2018-10-09T04:07:31.813Z,129.10
2018-10-09T04:08:31.703Z,130.90
2018-10-09T04:09:31.677Z,121.80
2018-10-09T04:10:31.814Z,118.10
2018-10-09T04:11:31.416Z,124.10
2018-10-09T04:12:31.362Z,124.40
2018-10-09T04:13:31.219Z,126.60
2018-10-09T04:14:31.122Z,122.80
2018-10-09T04:15:31.025Z,115.40
2018-10-09T04:16:30.931Z,111.90
2018-10-09T04:17:30.850Z,104.60
2018-10-09T04:18:30.739Z,106.80
2018-10-09T04:19:30.658Z,114.20
2018-10-09T04:20:30.542Z,110.80
2018-10-09T04:21:30.448Z,105.10
2018-10-09T04:22:30.469Z,100.40
2018-10-09T04:23:30.252Z,101.40
2018-10-09T04:24:30.158Z,108.70
2018-10-09T04:25:30.060Z,104.60
2018-10-09T04:26:29.966Z,106.00
2018-10-09T04:27:29.891Z,101.70
2018-10-09T04:28:29.771Z,97.80
2018-10-09T04:29:29.850Z,88.40
2018-10-09T04:30:29.579Z,95.20
2018-10-09T04:31:29.484Z,84.00
2018-10-09T04:32:29.404Z,83.00
2018-10-09T04:33:29.308Z,74.60
2018-10-09T04:34:29.198Z,79.10
2018-10-09T04:35:29.122Z,75.80
2018-10-09T04:36:29.005Z,70.30
2018-10-09T04:37:28.923Z,74.80
2018-10-09T04:38:28.812Z,71.40
2018-10-09T04:39:28.713Z,66.60
2018-10-09T04:40:28.621Z,67.30
2018-10-09T04:41:28.524Z,67.80
2018-10-09T04:42:28.444Z,75.10
2018-10-09T04:43:28.329Z,75.70
2018-10-09T04:44:28.233Z,79.90
2018-10-09T04:45:28.151Z,76.50
2018-10-09T04:46:28.042Z,78.90
2018-10-09T04:47:27.961Z,76.20
2018-10-09T04:48:27.850Z,78.20
2018-10-09T04:49:27.755Z,75.00
2018-10-09T04:50:27.656Z,72.00
2018-10-09T04:51:27.560Z,72.00
2018-10-09T04:52:27.481Z,81.30
2018-10-09T04:53:27.367Z,83.80
2018-10-09T04:54:27.272Z,81.90
2018-10-09T04:55:27.176Z,79.10
2018-10-09T04:56:27.080Z,80.40
2018-10-09T04:57:27.001Z,84.30
2018-10-09T04:58:26.888Z,83.30
2018-10-09T04:59:26.792Z,87.60
2018-10-09T05:00:26.697Z,90.40
2018-10-09T05:01:26.598Z,88.70
2018-10-09T05:02:26.521Z,109.80
2018-10-09T05:03:26.409Z,88.90
2018-10-09T05:04:26.311Z,88.90
2018-10-09T05:05:26.216Z,95.60
2018-10-09T05:06:26.135Z,109.10
2018-10-09T05:07:26.042Z,92.70
2018-10-09T05:08:25.927Z,79.20
2018-10-09T05:09:25.830Z,84.90
2018-10-09T05:10:25.734Z,87.50
2018-10-09T05:11:25.639Z,89.80
2018-10-09T05:12:25.560Z,92.60
2018-10-09T05:13:25.445Z,72.60
2018-10-09T05:14:25.350Z,71.60
2018-10-09T05:15:25.255Z,67.30
2018-10-09T05:16:25.158Z,62.90
2018-10-09T05:17:25.078Z,70.30
2018-10-09T05:18:24.965Z,67.60
2018-10-09T05:19:24.869Z,63.70
2018-10-09T05:20:24.777Z,63.80
2018-10-09T05:21:24.677Z,63.60
2018-10-09T05:22:24.596Z,66.10
2018-10-09T05:23:24.489Z,64.10
2018-10-09T05:24:24.389Z,60.10
2018-10-09T05:25:24.291Z,70.50
2018-10-09T05:26:24.196Z,258.20
2018-10-09T05:27:24.119Z,415.30
2018-10-09T05:28:24.005Z,777.60
2018-10-09T05:29:23.907Z,112.90
2018-10-09T05:30:23.813Z,57.00
2018-10-09T05:31:23.810Z,47.50
2018-10-09T05:32:23.639Z,33.10
2018-10-09T05:33:23.522Z,32.70
2018-10-09T05:34:23.430Z,27.80
2018-10-09T05:35:23.332Z,26.60
2018-10-09T05:36:23.234Z,29.40
2018-10-09T05:37:23.154Z,31.30
2018-10-09T05:38:23.045Z,28.80
2018-10-09T05:39:22.946Z,31.40
2018-10-09T05:40:22.848Z,31.70
2018-10-09T05:41:22.753Z,31.00
2018-10-09T05:42:22.673Z,33.10
2018-10-09T05:43:22.563Z,33.90
2018-10-09T05:44:22.523Z,33.10
2018-10-09T05:45:22.367Z,37.30
2018-10-09T05:46:22.268Z,34.80
2018-10-09T05:47:22.196Z,37.30
2018-10-09T05:48:22.076Z,38.10
2018-10-09T05:49:21.977Z,42.90
2018-10-09T05:50:21.883Z,40.60
2018-10-09T05:51:21.790Z,39.40
2018-10-09T05:52:21.834Z,41.20
2018-10-09T05:53:21.591Z,44.30
2018-10-09T05:54:21.496Z,43.90
2018-10-09T05:55:21.398Z,43.70
2018-10-09T05:56:21.320Z,49.30
2018-10-09T05:57:21.207Z,54.80
2018-10-09T05:58:21.124Z,73.90
2018-10-09T05:59:21.126Z,46.60
2018-10-09T06:00:20.916Z,48.40
2018-10-09T06:01:20.817Z,49.70
2018-10-09T06:02:20.722Z,55.10
2018-10-09T06:03:20.639Z,39.70
2018-10-09T06:04:20.527Z,43.90
2018-10-09T06:05:20.429Z,41.50
2018-10-09T06:06:20.467Z,36.80
2018-10-09T06:07:20.246Z,42.50
2018-10-09T06:08:20.159Z,35.20
2018-10-09T06:09:20.044Z,34.20
2018-10-09T06:10:19.947Z,38.10
2018-10-09T06:11:19.851Z,36.40
2018-10-09T06:12:19.757Z,51.80
2018-10-09T06:13:19.782Z,47.90
2018-10-09T06:14:19.564Z,39.60
2018-10-09T06:15:19.489Z,36.70
2018-10-09T06:16:19.369Z,31.60
2018-10-09T06:17:19.276Z,29.90
2018-10-09T06:18:19.191Z,25.20
2018-10-09T06:19:19.086Z,23.50
2018-10-09T06:20:19.087Z,26.30
2018-10-09T06:21:18.888Z,20.30
2018-10-09T06:22:18.970Z,21.20
2018-10-09T06:23:18.714Z,67.00
2018-10-09T06:24:18.604Z,49.10
2018-10-09T06:25:18.514Z,19.10
2018-10-09T06:26:18.412Z,17.60
2018-10-09T06:27:18.421Z,18.30
2018-10-09T06:28:18.245Z,16.50
2018-10-09T06:29:18.124Z,16.40
2018-10-09T06:30:18.030Z,16.40
2018-10-09T06:31:17.937Z,16.00
2018-10-09T06:32:17.840Z,15.20
2018-10-09T06:33:17.762Z,14.50
2018-10-09T06:34:17.758Z,14.60
2018-10-09T06:35:17.557Z,14.90
2018-10-09T06:36:17.465Z,13.80
2018-10-09T06:37:17.423Z,14.80
2018-10-09T06:38:17.293Z,15.10
2018-10-09T06:39:17.182Z,14.70
2018-10-09T06:40:17.094Z,14.70
2018-10-09T06:41:17.103Z,14.30
2018-10-09T06:42:16.904Z,14.20
2018-10-09T06:43:16.835Z,14.20
2018-10-09T06:44:16.760Z,15.00
2018-10-09T06:45:16.624Z,14.20
2018-10-09T06:46:16.570Z,14.80
2018-10-09T06:47:16.441Z,14.70
2018-10-09T06:48:16.471Z,14.50
2018-10-09T06:49:16.262Z,13.70
2018-10-09T06:50:16.166Z,13.90
2018-10-09T06:51:16.078Z,13.90
2018-10-09T06:52:15.981Z,14.30
2018-10-09T06:53:15.946Z,13.60
2018-10-09T06:54:15.944Z,13.80
2018-10-09T06:55:15.821Z,13.80
2018-10-09T06:56:15.619Z,13.50
2018-10-09T06:57:15.531Z,14.50
2018-10-09T06:58:15.455Z,13.70
2018-10-09T06:59:15.352Z,13.40
2018-10-09T07:00:15.268Z,13.60
2018-10-09T07:01:15.170Z,14.70
2018-10-09T07:02:15.188Z,14.20
2018-10-09T07:03:15.014Z,14.40
2018-10-09T07:04:14.907Z,13.30
2018-10-09T07:05:14.812Z,16.90
2018-10-09T07:06:14.723Z,15.00
2018-10-09T07:07:14.637Z,16.50
2018-10-09T07:08:14.563Z,18.60
2018-10-09T07:09:14.462Z,18.50
2018-10-09T07:10:14.364Z,18.30
2018-10-09T07:11:14.397Z,18.40
2018-10-09T07:12:14.188Z,18.30
2018-10-09T07:13:14.117Z,17.80
2018-10-09T07:14:14.008Z,17.50
2018-10-09T07:15:13.922Z,17.60
2018-10-09T07:16:13.951Z,17.10
2018-10-09T07:17:13.746Z,17.50
2018-10-09T07:18:13.671Z,17.30
2018-10-09T07:19:13.564Z,17.40
2018-10-09T07:20:13.480Z,17.10
2018-10-09T07:21:13.387Z,17.40
2018-10-09T07:22:13.298Z,17.30
2018-10-09T07:23:13.233Z,16.50
2018-10-09T07:24:13.123Z,17.30
2018-10-09T07:25:13.034Z,16.10
2018-10-09T07:26:12.947Z,16.10
2018-10-09T07:27:12.858Z,16.90
2018-10-09T07:28:12.786Z,16.50
2018-10-09T07:29:12.684Z,15.70
2018-10-09T07:30:12.591Z,16.10
2018-10-09T07:31:12.502Z,16.00
2018-10-09T07:32:12.415Z,16.10
2018-10-09T07:33:12.343Z,15.60
2018-10-09T07:34:12.239Z,14.60
2018-10-09T07:35:12.147Z,14.60
2018-10-09T07:36:12.064Z,15.50
2018-10-09T07:37:11.972Z,14.20
2018-10-09T07:38:11.888Z,14.90
2018-10-09T07:39:11.842Z,15.40
2018-10-09T07:40:11.709Z,14.60
2018-10-09T07:41:11.621Z,14.30
2018-10-09T07:42:11.536Z,14.00
2018-10-09T07:43:11.464Z,15.10
2018-10-09T07:44:11.398Z,14.60
2018-10-09T07:45:11.273Z,14.90
2018-10-09T07:46:11.181Z,14.30
2018-10-09T07:47:11.094Z,14.60
2018-10-09T07:48:11.010Z,14.60
2018-10-09T07:49:10.937Z,13.80
2018-10-09T07:50:10.831Z,13.00
2018-10-09T07:51:10.744Z,13.40
2018-10-09T07:52:10.655Z,12.70
2018-10-09T07:53:10.570Z,13.10
2018-10-09T07:54:10.495Z,12.00
2018-10-09T07:55:10.388Z,12.80
2018-10-09T07:56:10.300Z,12.90
2018-10-09T07:57:10.217Z,12.50
2018-10-09T07:58:10.131Z,11.70
2018-10-09T07:59:10.057Z,12.20
2018-10-09T08:00:10.458Z,12.10
2018-10-09T08:01:09.870Z,11.50
2018-10-09T08:02:09.781Z,12.30
2018-10-09T08:03:09.697Z,12.50
2018-10-09T08:04:09.625Z,12.90
2018-10-09T08:05:09.523Z,13.40
2018-10-09T08:06:09.434Z,16.40
2018-10-09T08:07:09.350Z,35.50
2018-10-09T08:08:09.261Z,23.70
2018-10-09T08:09:09.189Z,32.60
2018-10-09T08:10:09.090Z,24.20
2018-10-09T08:11:09.004Z,11.60
2018-10-09T08:12:08.915Z,12.10
2018-10-09T08:13:08.828Z,12.40
2018-10-09T08:14:08.759Z,14.30
2018-10-09T08:15:08.659Z,13.20
2018-10-09T08:16:08.573Z,11.60
2018-10-09T08:17:08.489Z,11.70
2018-10-09T08:18:08.398Z,11.10
2018-10-09T08:19:08.334Z,12.00
2018-10-09T08:20:08.231Z,13.00
2018-10-09T08:21:08.146Z,11.90
2018-10-09T08:22:08.057Z,12.40
2018-10-09T08:23:07.971Z,13.20
2018-10-09T08:24:07.903Z,12.60
2018-10-09T08:25:07.802Z,11.20
2018-10-09T08:26:07.715Z,11.40
2018-10-09T08:27:07.631Z,12.20
2018-10-09T08:28:07.676Z,12.20
2018-10-09T08:29:07.476Z,12.90
2018-10-09T08:30:07.378Z,12.00
2018-10-09T08:31:07.296Z,12.70
2018-10-09T08:32:07.221Z,12.30
2018-10-09T08:33:07.121Z,12.20
2018-10-09T08:34:07.047Z,11.70
2018-10-09T08:35:06.949Z,12.30
2018-10-09T08:36:06.862Z,12.00
2018-10-09T08:37:06.776Z,13.20
2018-10-09T08:38:06.686Z,13.30
2018-10-09T08:39:06.724Z,11.80
2018-10-09T08:40:06.537Z,11.60
2018-10-09T08:41:06.433Z,12.30
2018-10-09T08:42:06.346Z,11.30
2018-10-09T08:43:06.259Z,11.30
2018-10-09T08:44:06.198Z,11.70
2018-10-09T08:45:06.090Z,12.00
2018-10-09T08:46:06.155Z,10.70
2018-10-09T08:47:05.925Z,11.60
2018-10-09T08:48:05.834Z,11.90
2018-10-09T08:49:05.765Z,11.90
2018-10-09T08:50:05.662Z,11.40
2018-10-09T08:51:05.576Z,11.20
2018-10-09T08:52:05.531Z,11.40
2018-10-09T08:53:05.511Z,10.70
2018-10-09T08:54:05.339Z,10.20
2018-10-09T08:55:05.246Z,11.40
2018-10-09T08:56:05.160Z,10.70
2018-10-09T08:57:05.079Z,10.40
2018-10-09T08:58:04.989Z,10.60
2018-10-09T08:59:04.981Z,10.20
2018-10-09T09:00:04.924Z,9.80
2018-10-09T09:01:04.738Z,10.00
2018-10-09T09:02:04.656Z,10.20
2018-10-09T09:03:04.570Z,10.00
2018-10-09T09:04:04.503Z,10.00
2018-10-09T09:05:04.409Z,9.90
2018-10-09T09:06:04.342Z,9.10
2018-10-09T09:07:04.341Z,9.80
2018-10-09T09:08:04.159Z,9.30
2018-10-09T09:09:04.089Z,10.20
2018-10-09T09:10:03.991Z,10.20
2018-10-09T09:11:03.909Z,9.80
2018-10-09T09:12:03.825Z,10.20
2018-10-09T09:13:03.742Z,10.40
2018-10-09T09:14:03.860Z,10.90
2018-10-09T09:15:03.581Z,11.30
2018-10-09T09:16:03.495Z,10.80
2018-10-09T09:17:03.413Z,10.40
2018-10-09T09:18:03.330Z,10.90
2018-10-09T09:19:03.266Z,10.70
2018-10-09T09:20:03.174Z,11.20
2018-10-09T09:21:03.241Z,11.10
2018-10-09T09:22:02.998Z,11.20
2018-10-09T09:23:02.917Z,10.20
2018-10-09T09:24:02.851Z,11.40
2018-10-09T09:25:02.749Z,11.00
2018-10-09T09:26:02.709Z,11.30
2018-10-09T09:27:02.744Z,11.60
2018-10-09T09:28:02.623Z,11.70
2018-10-09T09:29:02.419Z,11.90
2018-10-09T09:30:02.348Z,11.70
2018-10-09T09:31:02.248Z,11.80
2018-10-09T09:32:02.167Z,12.20
2018-10-09T09:33:02.113Z,10.90
2018-10-09T09:34:02.000Z,11.50
2018-10-09T09:35:02.046Z,11.50
2018-10-09T09:36:01.827Z,11.10
2018-10-09T09:37:01.743Z,11.60
2018-10-09T09:38:01.656Z,11.60
2018-10-09T09:39:01.620Z,12.00
2018-10-09T09:40:01.508Z,11.50
2018-10-09T09:41:01.404Z,12.70
2018-10-09T09:42:01.325Z,12.50
2018-10-09T09:43:01.555Z,12.10
2018-10-09T09:44:01.161Z,11.70
2018-10-09T09:45:01.091Z,12.30
2018-10-09T09:46:01.152Z,12.30
2018-10-09T09:47:00.898Z,11.90
2018-10-09T09:48:00.821Z,12.00
2018-10-09T09:49:00.733Z,12.90
2018-10-09T09:50:00.663Z,13.50
2018-10-09T09:51:00.575Z,13.20
2018-10-09T09:52:00.529Z,12.60
2018-10-09T09:53:00.392Z,15.90
2018-10-09T09:54:00.307Z,16.80
2018-10-09T09:55:00.238Z,16.60
2018-10-09T09:56:00.144Z,13.20
2018-10-09T09:57:00.055Z,11.10
2018-10-09T09:58:00.045Z,10.90
2018-10-09T09:59:00.175Z,10.70
2018-10-09T09:59:59.820Z,10.80
2018-10-09T10:00:59.722Z,10.50
2018-10-09T10:01:59.639Z,11.20
2018-10-09T10:02:59.548Z,11.00
2018-10-09T10:03:59.475Z,11.20
2018-10-09T10:04:59.399Z,10.80
2018-10-09T10:05:59.296Z,10.50
2018-10-09T10:06:59.214Z,10.30
2018-10-09T10:07:59.129Z,10.80
2018-10-09T10:08:59.051Z,10.60
2018-10-09T10:09:58.978Z,10.20
2018-10-09T10:10:58.879Z,10.60
2018-10-09T10:11:58.795Z,10.40
2018-10-09T10:12:58.711Z,10.10
2018-10-09T10:13:58.630Z,10.20
2018-10-09T10:14:58.566Z,10.30
2018-10-09T10:15:58.463Z,10.20
2018-10-09T10:16:58.380Z,9.60
2018-10-09T10:17:58.300Z,10.40
2018-10-09T10:18:58.215Z,9.60
2018-10-09T10:19:58.146Z,10.70
2018-10-09T10:20:58.048Z,10.00
2018-10-09T10:21:57.969Z,10.40
2018-10-09T10:22:57.883Z,11.00
2018-10-09T10:23:57.798Z,10.60
2018-10-09T10:24:57.732Z,9.80
2018-10-09T10:25:57.634Z,11.60
2018-10-09T10:26:57.557Z,11.00
2018-10-09T10:27:57.467Z,11.70
2018-10-09T10:28:57.420Z,11.80
2018-10-09T10:29:57.318Z,11.70
2018-10-09T10:30:57.220Z,12.80
2018-10-09T10:31:57.133Z,13.90
2018-10-09T10:32:57.052Z,12.40
2018-10-09T10:33:56.970Z,11.30
2018-10-09T10:34:56.905Z,10.80
2018-10-09T10:35:56.803Z,11.20
2018-10-09T10:36:56.716Z,11.40
2018-10-09T10:37:56.633Z,11.50
2018-10-09T10:38:56.556Z,11.50
2018-10-09T10:39:56.486Z,11.40
2018-10-09T10:40:56.384Z,11.20
2018-10-09T10:41:56.307Z,11.20
2018-10-09T10:42:56.221Z,11.20
2018-10-09T10:43:56.135Z,11.70
2018-10-09T10:44:56.070Z,11.20
2018-10-09T10:45:55.971Z,10.30
2018-10-09T10:46:55.884Z,11.20
2018-10-09T10:47:55.801Z,10.80
2018-10-09T10:48:55.767Z,10.40
2018-10-09T10:49:55.647Z,11.20
2018-10-09T10:50:55.550Z,10.50
2018-10-09T10:51:55.465Z,10.70
2018-10-09T10:52:55.384Z,10.30
2018-10-09T10:53:55.297Z,10.50
2018-10-09T10:54:55.263Z,10.80
2018-10-09T10:55:55.129Z,11.20
2018-10-09T10:56:55.046Z,10.70
2018-10-09T10:57:54.963Z,10.70
2018-10-09T10:58:54.878Z,10.80
2018-10-09T10:59:54.809Z,10.60
2018-10-09T11:00:54.710Z,10.60
2018-10-09T11:01:54.671Z,11.40
2018-10-09T11:02:54.547Z,11.40
2018-10-09T11:03:54.462Z,10.90
2018-10-09T11:04:54.392Z,10.80
2018-10-09T11:05:54.290Z,11.30
2018-10-09T11:06:54.207Z,11.60
2018-10-09T11:07:54.168Z,11.10
2018-10-09T11:08:54.036Z,11.90
2018-10-09T11:09:53.973Z,11.90
2018-10-09T11:10:53.868Z,12.90
2018-10-09T11:11:53.790Z,12.90
2018-10-09T11:12:53.802Z,12.20
2018-10-09T11:13:53.612Z,12.20
2018-10-09T11:14:53.530Z,13.80
2018-10-09T11:15:53.460Z,13.10
2018-10-09T11:16:53.357Z,14.10
2018-10-09T11:17:53.274Z,13.90
2018-10-09T11:18:53.185Z,12.50
2018-10-09T11:19:53.117Z,11.70
2018-10-09T11:20:53.013Z,11.30
2018-10-09T11:21:52.930Z,12.10
2018-10-09T11:22:52.850Z,12.10
2018-10-09T11:23:52.761Z,12.10
2018-10-09T11:24:52.676Z,12.50
2018-10-09T11:25:52.605Z,12.60
2018-10-09T11:26:52.605Z,12.40
2018-10-09T11:27:52.412Z,13.20
2018-10-09T11:28:52.326Z,12.40
2018-10-09T11:29:52.245Z,12.60
2018-10-09T11:30:52.175Z,12.40
2018-10-09T11:31:52.092Z,12.80
2018-10-09T11:32:51.981Z,12.50
2018-10-09T11:33:52.001Z,13.10
2018-10-09T11:34:51.812Z,12.60
2018-10-09T11:35:51.743Z,12.50
2018-10-09T11:36:51.638Z,12.00
2018-10-09T11:37:51.552Z,13.20
2018-10-09T11:38:51.467Z,12.60
2018-10-09T11:39:51.378Z,12.30
2018-10-09T11:40:51.416Z,11.90
2018-10-09T11:41:51.210Z,12.30
2018-10-09T11:42:51.164Z,11.50
2018-10-09T11:43:51.035Z,11.60
2018-10-09T11:44:50.961Z,11.10
2018-10-09T11:45:50.875Z,11.30
2018-10-09T11:46:50.776Z,11.40
2018-10-09T11:47:50.792Z,10.80
2018-10-09T11:48:50.647Z,11.20
2018-10-09T11:49:50.520Z,11.00
2018-10-09T11:50:50.446Z,10.30
2018-10-09T11:51:50.377Z,10.80
2018-10-09T11:52:50.259Z,10.50
2018-10-09T11:53:50.191Z,10.20
2018-10-09T11:54:50.211Z,10.00
2018-10-09T11:55:50.023Z,10.30
2018-10-09T11:56:49.974Z,10.60
2018-10-09T11:57:49.836Z,10.00
2018-10-09T11:58:49.752Z,10.60
2018-10-09T11:59:49.665Z,10.40
2018-10-09T12:00:49.596Z,9.70
2018-10-09T12:01:49.609Z,10.40
2018-10-09T12:02:49.464Z,10.10
2018-10-09T12:03:49.329Z,10.60
2018-10-09T12:04:49.248Z,10.30
2018-10-09T12:05:49.291Z,10.10
2018-10-09T12:06:49.077Z,12.30
2018-10-09T12:07:48.991Z,10.10
2018-10-09T12:08:49.014Z,10.40
2018-10-09T12:09:48.824Z,10.90
2018-10-09T12:10:48.761Z,10.50
2018-10-09T12:11:48.660Z,10.40
2018-10-09T12:12:48.573Z,10.40
2018-10-09T12:13:48.493Z,9.90
2018-10-09T12:14:48.409Z,10.20
2018-10-09T12:15:48.516Z,10.90
2018-10-09T12:16:48.250Z,10.40
2018-10-09T12:17:48.158Z,11.40
2018-10-09T12:18:48.075Z,11.60
2018-10-09T12:19:47.993Z,11.30
2018-10-09T12:20:47.933Z,11.30
2018-10-09T12:21:47.831Z,11.30
2018-10-09T12:22:47.851Z,10.50
2018-10-09T12:23:47.669Z,17.30
2018-10-09T12:24:47.581Z,10.70
2018-10-09T12:25:47.514Z,11.10
2018-10-09T12:26:47.415Z,10.60
2018-10-09T12:27:47.332Z,11.40
2018-10-09T12:28:47.246Z,10.70
2018-10-09T12:29:47.273Z,10.70
2018-10-09T12:30:47.102Z,10.40
2018-10-09T12:31:46.999Z,11.30
2018-10-09T12:32:46.960Z,11.20
2018-10-09T12:33:46.837Z,10.80
2018-10-09T12:34:46.752Z,11.20
2018-10-09T12:35:46.686Z,10.40
2018-10-09T12:36:46.590Z,11.20
2018-10-09T12:37:46.503Z,10.40
2018-10-09T12:38:46.420Z,11.80
2018-10-09T12:39:46.337Z,11.10
2018-10-09T12:40:46.269Z,10.70
2018-10-09T12:41:46.174Z,10.50
2018-10-09T12:42:46.090Z,10.60
2018-10-09T12:43:46.013Z,10.90
2018-10-09T12:44:45.921Z,10.20
2018-10-09T12:45:45.858Z,9.90
2018-10-09T12:46:45.755Z,10.40
2018-10-09T12:47:45.673Z,10.30